Ufo 3 — IUNV — position and weather

sailwx.info

Track history (hours):
 
Tides and Currents Weather Stations Pressure Air Temp Water Temp Dewpoint Dewpoint Depression Visibility Wind Speed Wind Dir Waves Ship Positions

Ufo 3

Last reported at 2017-Oct-30 16:09 UTC. Time now 2017-Nov-24 16:47 UTC.
Position N 44°03' E 009°50'.
Warning: this ship's position is 25 days out of date.

Length 28 m.

Type: Passenger vessel. MMSI: 247031600.

Date/timePositionNaut miles runAvg speedWind from/ knotsBaromVisibWave heightAir tempDewpointWater temp
2017-Oct-30 16:09N 44°03' E 009°50'0 0.8
2017-Oct-30 16:01N 44°03' E 009°50'916.4
2017-Oct-30 15:29N 44°08' E 009°40'1 1.7
2017-Oct-30 14:46N 44°09' E 009°39'0 0.0
2017-Oct-30 14:30N 44°09' E 009°39'10 9.7
2017-Oct-30 13:30N 44°03' E 009°50'0 0.0
2017-Oct-30 13:00N 44°03' E 009°50'0 0.0
2017-Oct-30 12:30N 44°03' E 009°50'0 0.0
2017-Oct-30 12:00N 44°03' E 009°50'0 0.0
2017-Oct-30 11:30N 44°03' E 009°50'0 0.0
2017-Oct-30 10:57N 44°03' E 009°50'0 0.0
2017-Oct-30 10:30N 44°03' E 009°50'2 4.5
2017-Oct-30 10:00N 44°04' E 009°47'4 3.7
2017-Oct-30 08:48N 44°07' E 009°42'415.5
2017-Oct-30 08:31N 44°04' E 009°47'2 4.9
2017-Oct-30 08:00N 44°03' E 009°50'0 0.9
2017-Oct-30 07:31N 44°03' E 009°51'0 0.0
2017-Oct-30 07:01N 44°03' E 009°51'0 0.0
2017-Oct-30 06:31N 44°03' E 009°51'0 0.0
2017-Oct-30 06:01N 44°03' E 009°51'0 0.0
2017-Oct-30 05:31N 44°03' E 009°51'0 0.0
2017-Oct-30 05:01N 44°03' E 009°51'0 0.0
2017-Oct-29 14:57N 44°03' E 009°51'614.2
2017-Oct-29 14:30N 44°06' E 009°43'4 6.8
2017-Oct-29 13:57N 44°09' E 009°39'0 0.0
2017-Oct-29 13:28N 44°09' E 009°39'2 1.1
2017-Oct-29 11:48N 44°07' E 009°41'3 6.8
2017-Oct-29 11:25N 44°06' E 009°44'512.6
2017-Oct-29 11:00N 44°03' E 009°50'2 4.3
2017-Oct-29 10:26N 44°06' E 009°50'1 1.8
2017-Oct-29 10:00N 44°06' E 009°50'0 0.0
2017-Oct-29 09:30N 44°06' E 009°50'1 1.8
2017-Oct-29 08:59N 44°05' E 009°50'2 4.2
2017-Oct-29 08:25N 44°03' E 009°50'0 0.0
2017-Oct-29 08:00N 44°03' E 009°50'0 0.0
2017-Oct-29 07:30N 44°03' E 009°50'0 0.0
2017-Oct-29 07:00N 44°03' E 009°50'0 0.0
2017-Oct-29 06:30N 44°03' E 009°50'0 0.0
2017-Oct-29 06:00N 44°03' E 009°50'0 0.0
2017-Oct-29 05:30N 44°03' E 009°50'0 0.0
2017-Oct-29 05:00N 44°03' E 009°50'0 0.0
2017-Oct-28 15:12N 44°03' E 009°50'2 8.2
2017-Oct-28 15:00N 44°04' E 009°52'2 3.3
2017-Oct-28 14:30N 44°03' E 009°50'0 0.0
2017-Oct-28 14:01N 44°03' E 009°50'1 1.6
2017-Oct-28 13:31N 44°02' E 009°51'1 1.6
2017-Oct-28 13:01N 44°03' E 009°50'0 0.0
2017-Oct-28 12:28N 44°03' E 009°50'0 0.0
2017-Oct-28 12:01N 44°03' E 009°50'0 0.0
2017-Oct-28 11:30N 44°03' E 009°50'0 0.0
2017-Oct-28 11:00N 44°03' E 009°50'1 1.9
2017-Oct-28 10:28N 44°02' E 009°51'1 2.3
2017-Oct-28 10:01N 44°03' E 009°50'0 0.0
2017-Oct-28 09:31N 44°03' E 009°50'0 0.0
2017-Oct-28 09:00N 44°03' E 009°50'0 0.0
2017-Oct-28 08:31N 44°03' E 009°50'0 0.0
2017-Oct-28 08:01N 44°03' E 009°50'0 0.0
2017-Oct-28 07:30N 44°03' E 009°50'0 0.0
2017-Oct-28 07:00N 44°03' E 009°50'0 0.0
2017-Oct-28 06:31N 44°03' E 009°50'0 0.0
2017-Oct-28 06:00N 44°03' E 009°50'0 0.0
2017-Oct-28 05:31N 44°03' E 009°50'0 0.0
2017-Oct-28 05:00N 44°03' E 009°50'0 0.0
2017-Oct-28 04:30N 44°03' E 009°50'0 0.0
2017-Oct-28 04:01N 44°03' E 009°50'0 0.0
2017-Oct-27 16:18N 44°03' E 009°50'310.2
2017-Oct-27 16:00N 44°04' E 009°54'2 4.1
2017-Oct-27 15:31N 44°03' E 009°52'1 2.3
2017-Oct-27 15:00N 44°03' E 009°50'0 0.0
2017-Oct-27 14:30N 44°03' E 009°50'0 0.0
2017-Oct-27 14:00N 44°03' E 009°50'1 2.4
2017-Oct-27 13:31N 44°02' E 009°51'1 2.4
2017-Oct-27 13:00N 44°03' E 009°50'0 0.0
2017-Oct-27 12:30N 44°03' E 009°50'0 0.0
2017-Oct-27 12:00N 44°03' E 009°50'0 0.0
2017-Oct-27 11:31N 44°03' E 009°50'0 0.0
2017-Oct-27 11:01N 44°03' E 009°50'1 1.8
2017-Oct-27 10:31N 44°02' E 009°51'1 1.8
2017-Oct-27 10:00N 44°03' E 009°50'0 0.0
2017-Oct-27 09:29N 44°03' E 009°50'0 0.4
2017-Oct-27 08:56N 44°03' E 009°50'10 7.5
2017-Oct-27 07:38N 44°09' E 009°39'215.3
2017-Oct-27 07:30N 44°07' E 009°41'612.1
2017-Oct-27 07:00N 44°04' E 009°48'2 0.1
2017-Oct-26 09:13N 44°03' E 009°51'0 1.9
2017-Oct-26 09:00N 44°03' E 009°50'0 0.0
2017-Oct-26 08:30N 44°03' E 009°50'0 0.0
2017-Oct-26 08:00N 44°03' E 009°50'3 6.8
2017-Oct-26 07:30N 44°04' E 009°55'3 5.4
2017-Oct-26 07:00N 44°03' E 009°51'1 0.1
2017-Oct-25 17:10N 44°03' E 009°50'0 0.6
2017-Oct-25 17:00N 44°03' E 009°50'918.4
2017-Oct-25 16:31N 44°07' E 009°39'2 3.1
2017-Oct-25 16:00N 44°08' E 009°37'4 6.5
2017-Oct-25 15:26N 44°07' E 009°42'2 3.7
2017-Oct-25 14:57N 44°06' E 009°44'511.0
2017-Oct-25 14:29N 44°03' E 009°50'0 0.0
2017-Oct-25 14:01N 44°03' E 009°50'0 0.0
2017-Oct-25 13:31N 44°03' E 009°50'2 4.7
2017-Oct-25 13:00N 44°04' E 009°47'7 2.6
2017-Oct-25 10:20N 44°09' E 009°40'2 5.2
2017-Oct-25 09:59N 44°07' E 009°41'2 4.5
2017-Oct-25 09:27N 44°06' E 009°44'510.2
2017-Oct-25 08:56N 44°03' E 009°50'3 7.9
2017-Oct-25 08:30N 44°04' E 009°55'1 1.8
2017-Oct-25 08:00N 44°04' E 009°53'3 5.0
2017-Oct-25 07:30N 44°03' E 009°50'0 0.0
2017-Oct-25 07:00N 44°03' E 009°50'0 0.0
2017-Oct-24 14:37N 44°03' E 009°50'0 0.0
2017-Oct-24 14:30N 44°03' E 009°50'3 5.3
2017-Oct-24 14:01N 44°04' E 009°47'3 6.6
2017-Oct-24 13:30N 44°06' E 009°43'4 3.3
2017-Oct-24 12:23N 44°09' E 009°39'0 0.1
2017-Oct-24 11:56N 44°09' E 009°39'1 0.9
2017-Oct-24 10:56N 44°08' E 009°40'0 0.2
2017-Oct-24 10:29N 44°08' E 009°40'2 2.7
2017-Oct-24 09:40N 44°07' E 009°43'1 6.6
2017-Oct-24 09:29N 44°06' E 009°44'4 7.4
2017-Oct-24 09:01N 44°04' E 009°47'2 4.2
2017-Oct-24 08:30N 44°03' E 009°50'0 0.0
2017-Oct-24 08:01N 44°03' E 009°50'3 6.8
2017-Oct-24 07:30N 44°04' E 009°55'0 0.5
2017-Oct-24 07:00N 44°05' E 009°54'3 6.5
2017-Oct-24 06:30N 44°03' E 009°50'0 0.0
2017-Oct-24 05:56N 44°03' E 009°50'0 0.0
2017-Oct-24 05:30N 44°03' E 009°50'0 0.0
2017-Oct-24 05:00N 44°03' E 009°50'0 0.0
2017-Oct-24 04:30N 44°03' E 009°50'0 0.0
2017-Oct-24 04:00N 44°03' E 009°50'0 0.0
2017-Oct-24 03:30N 44°03' E 009°50'0 0.0
2017-Oct-23 07:29N 44°03' E 009°50'0 0.0
2017-Oct-23 07:00N 44°03' E 009°50'0 0.0
2017-Oct-23 06:30N 44°03' E 009°50'0 0.0
2017-Oct-23 06:00N 44°03' E 009°50'0 0.0
2017-Oct-23 05:30N 44°03' E 009°50'0 0.0
2017-Oct-23 05:00N 44°03' E 009°50'0 0.0
2017-Oct-23 04:30N 44°03' E 009°50'0 0.0
2017-Oct-23 04:00N 44°03' E 009°50'0 0.0
2017-Oct-22 06:55N 44°03' E 009°50'0 0.0
2017-Oct-22 06:30N 44°03' E 009°50'0 0.0
2017-Oct-22 06:00N 44°03' E 009°50'0 0.0
2017-Oct-22 05:30N 44°03' E 009°50'0 0.0
2017-Oct-22 05:00N 44°03' E 009°50'0 0.0
2017-Oct-22 04:30N 44°03' E 009°50'0 0.0
2017-Oct-21 16:27N 44°03' E 009°50'614.9
2017-Oct-21 16:00N 44°06' E 009°42'1 1.2
2017-Oct-21 14:57N 44°06' E 009°44'5 5.6
2017-Oct-21 14:00N 44°03' E 009°50'0 0.0
2017-Oct-21 13:31N 44°03' E 009°50'0 0.0
2017-Oct-21 13:00N 44°03' E 009°50'0 0.0
2017-Oct-21 12:30N 44°03' E 009°50'0 0.0
2017-Oct-21 12:00N 44°03' E 009°50'0 0.0
2017-Oct-21 11:30N 44°03' E 009°50'611.2
2017-Oct-21 11:00N 44°06' E 009°43'4 5.3
2017-Oct-21 10:18N 44°08' E 009°40'2 6.5
2017-Oct-21 10:00N 44°07' E 009°42'2 4.0
2017-Oct-21 09:29N 44°06' E 009°44'511.1
2017-Oct-21 09:00N 44°03' E 009°50'3 6.7
2017-Oct-21 08:30N 44°04' E 009°55'2 3.3
2017-Oct-21 08:00N 44°04' E 009°52'2 3.7
2017-Oct-21 07:30N 44°03' E 009°50'0 0.0
2017-Oct-21 07:00N 44°03' E 009°50'0 0.0
2017-Oct-21 06:30N 44°03' E 009°50'0 0.0
2017-Oct-21 06:00N 44°03' E 009°50'0 0.0
2017-Oct-21 05:30N 44°03' E 009°50'0 0.0
2017-Oct-21 05:00N 44°03' E 009°50'0 0.0
2017-Oct-21 04:30N 44°03' E 009°50'  
Track history (hours):
 
Tides and Currents Weather Stations Pressure Air Temp Water Temp Dewpoint Dewpoint Depression Visibility Wind Speed Wind Dir Waves Ship Positions

Ufo 3

Last reported at 2017-Oct-30 16:09 UTC. Time now 2017-Nov-24 16:47 UTC.
Position N 44°03' E 009°50'.
Warning: this ship's position is 25 days out of date.

Length 28 m.

Type: Passenger vessel. MMSI: 247031600.

Date/timePositionNaut miles runAvg speedWind from/ knotsBaromVisibWave heightAir tempDewpointWater temp
2017-Oct-30 16:09N 44°03' E 009°50'0 0.8
2017-Oct-30 16:01N 44°03' E 009°50'916.4
2017-Oct-30 15:29N 44°08' E 009°40'1 1.7
2017-Oct-30 14:46N 44°09' E 009°39'0 0.0
2017-Oct-30 14:30N 44°09' E 009°39'10 9.7
2017-Oct-30 13:30N 44°03' E 009°50'0 0.0
2017-Oct-30 13:00N 44°03' E 009°50'0 0.0
2017-Oct-30 12:30N 44°03' E 009°50'0 0.0
2017-Oct-30 12:00N 44°03' E 009°50'0 0.0
2017-Oct-30 11:30N 44°03' E 009°50'0 0.0
2017-Oct-30 10:57N 44°03' E 009°50'0 0.0
2017-Oct-30 10:30N 44°03' E 009°50'2 4.5
2017-Oct-30 10:00N 44°04' E 009°47'4 3.7
2017-Oct-30 08:48N 44°07' E 009°42'415.5
2017-Oct-30 08:31N 44°04' E 009°47'2 4.9
2017-Oct-30 08:00N 44°03' E 009°50'0 0.9
2017-Oct-30 07:31N 44°03' E 009°51'0 0.0
2017-Oct-30 07:01N 44°03' E 009°51'0 0.0
2017-Oct-30 06:31N 44°03' E 009°51'0 0.0
2017-Oct-30 06:01N 44°03' E 009°51'0 0.0
2017-Oct-30 05:31N 44°03' E 009°51'0 0.0
2017-Oct-30 05:01N 44°03' E 009°51'0 0.0
2017-Oct-29 14:57N 44°03' E 009°51'614.2
2017-Oct-29 14:30N 44°06' E 009°43'4 6.8
2017-Oct-29 13:57N 44°09' E 009°39'0 0.0
2017-Oct-29 13:28N 44°09' E 009°39'2 1.1
2017-Oct-29 11:48N 44°07' E 009°41'3 6.8
2017-Oct-29 11:25N 44°06' E 009°44'512.6
2017-Oct-29 11:00N 44°03' E 009°50'2 4.3
2017-Oct-29 10:26N 44°06' E 009°50'1 1.8
2017-Oct-29 10:00N 44°06' E 009°50'0 0.0
2017-Oct-29 09:30N 44°06' E 009°50'1 1.8
2017-Oct-29 08:59N 44°05' E 009°50'2 4.2
2017-Oct-29 08:25N 44°03' E 009°50'0 0.0
2017-Oct-29 08:00N 44°03' E 009°50'0 0.0
2017-Oct-29 07:30N 44°03' E 009°50'0 0.0
2017-Oct-29 07:00N 44°03' E 009°50'0 0.0
2017-Oct-29 06:30N 44°03' E 009°50'0 0.0
2017-Oct-29 06:00N 44°03' E 009°50'0 0.0
2017-Oct-29 05:30N 44°03' E 009°50'0 0.0
2017-Oct-29 05:00N 44°03' E 009°50'0 0.0
2017-Oct-28 15:12N 44°03' E 009°50'2 8.2
2017-Oct-28 15:00N 44°04' E 009°52'2 3.3
2017-Oct-28 14:30N 44°03' E 009°50'0 0.0
2017-Oct-28 14:01N 44°03' E 009°50'1 1.6
2017-Oct-28 13:31N 44°02' E 009°51'1 1.6
2017-Oct-28 13:01N 44°03' E 009°50'0 0.0
2017-Oct-28 12:28N 44°03' E 009°50'0 0.0
2017-Oct-28 12:01N 44°03' E 009°50'0 0.0
2017-Oct-28 11:30N 44°03' E 009°50'0 0.0
2017-Oct-28 11:00N 44°03' E 009°50'1 1.9
2017-Oct-28 10:28N 44°02' E 009°51'1 2.3
2017-Oct-28 10:01N 44°03' E 009°50'0 0.0
2017-Oct-28 09:31N 44°03' E 009°50'0 0.0
2017-Oct-28 09:00N 44°03' E 009°50'0 0.0
2017-Oct-28 08:31N 44°03' E 009°50'0 0.0
2017-Oct-28 08:01N 44°03' E 009°50'0 0.0
2017-Oct-28 07:30N 44°03' E 009°50'0 0.0
2017-Oct-28 07:00N 44°03' E 009°50'0 0.0
2017-Oct-28 06:31N 44°03' E 009°50'0 0.0
2017-Oct-28 06:00N 44°03' E 009°50'0 0.0
2017-Oct-28 05:31N 44°03' E 009°50'0 0.0
2017-Oct-28 05:00N 44°03' E 009°50'0 0.0
2017-Oct-28 04:30N 44°03' E 009°50'0 0.0
2017-Oct-28 04:01N 44°03' E 009°50'0 0.0
2017-Oct-27 16:18N 44°03' E 009°50'310.2
2017-Oct-27 16:00N 44°04' E 009°54'2 4.1
2017-Oct-27 15:31N 44°03' E 009°52'1 2.3
2017-Oct-27 15:00N 44°03' E 009°50'0 0.0
2017-Oct-27 14:30N 44°03' E 009°50'0 0.0
2017-Oct-27 14:00N 44°03' E 009°50'1 2.4
2017-Oct-27 13:31N 44°02' E 009°51'1 2.4
2017-Oct-27 13:00N 44°03' E 009°50'0 0.0
2017-Oct-27 12:30N 44°03' E 009°50'0 0.0
2017-Oct-27 12:00N 44°03' E 009°50'0 0.0
2017-Oct-27 11:31N 44°03' E 009°50'0 0.0
2017-Oct-27 11:01N 44°03' E 009°50'1 1.8
2017-Oct-27 10:31N 44°02' E 009°51'1 1.8
2017-Oct-27 10:00N 44°03' E 009°50'0 0.0
2017-Oct-27 09:29N 44°03' E 009°50'0 0.4
2017-Oct-27 08:56N 44°03' E 009°50'10 7.5
2017-Oct-27 07:38N 44°09' E 009°39'215.3
2017-Oct-27 07:30N 44°07' E 009°41'612.1
2017-Oct-27 07:00N 44°04' E 009°48'2 0.1
2017-Oct-26 09:13N 44°03' E 009°51'0 1.9
2017-Oct-26 09:00N 44°03' E 009°50'0 0.0
2017-Oct-26 08:30N 44°03' E 009°50'0 0.0
2017-Oct-26 08:00N 44°03' E 009°50'3 6.8
2017-Oct-26 07:30N 44°04' E 009°55'3 5.4
2017-Oct-26 07:00N 44°03' E 009°51'1 0.1
2017-Oct-25 17:10N 44°03' E 009°50'0 0.6
2017-Oct-25 17:00N 44°03' E 009°50'918.4
2017-Oct-25 16:31N 44°07' E 009°39'2 3.1
2017-Oct-25 16:00N 44°08' E 009°37'4 6.5
2017-Oct-25 15:26N 44°07' E 009°42'2 3.7
2017-Oct-25 14:57N 44°06' E 009°44'511.0
2017-Oct-25 14:29N 44°03' E 009°50'0 0.0
2017-Oct-25 14:01N 44°03' E 009°50'0 0.0
2017-Oct-25 13:31N 44°03' E 009°50'2 4.7
2017-Oct-25 13:00N 44°04' E 009°47'7 2.6
2017-Oct-25 10:20N 44°09' E 009°40'2 5.2
2017-Oct-25 09:59N 44°07' E 009°41'2 4.5
2017-Oct-25 09:27N 44°06' E 009°44'510.2
2017-Oct-25 08:56N 44°03' E 009°50'3 7.9
2017-Oct-25 08:30N 44°04' E 009°55'1 1.8
2017-Oct-25 08:00N 44°04' E 009°53'3 5.0
2017-Oct-25 07:30N 44°03' E 009°50'0 0.0
2017-Oct-25 07:00N 44°03' E 009°50'0 0.0
2017-Oct-24 14:37N 44°03' E 009°50'0 0.0
2017-Oct-24 14:30N 44°03' E 009°50'3 5.3
2017-Oct-24 14:01N 44°04' E 009°47'3 6.6
2017-Oct-24 13:30N 44°06' E 009°43'4 3.3
2017-Oct-24 12:23N 44°09' E 009°39'0 0.1
2017-Oct-24 11:56N 44°09' E 009°39'1 0.9
2017-Oct-24 10:56N 44°08' E 009°40'0 0.2
2017-Oct-24 10:29N 44°08' E 009°40'2 2.7
2017-Oct-24 09:40N 44°07' E 009°43'1 6.6
2017-Oct-24 09:29N 44°06' E 009°44'4 7.4
2017-Oct-24 09:01N 44°04' E 009°47'2 4.2
2017-Oct-24 08:30N 44°03' E 009°50'0 0.0
2017-Oct-24 08:01N 44°03' E 009°50'3 6.8
2017-Oct-24 07:30N 44°04' E 009°55'0 0.5
2017-Oct-24 07:00N 44°05' E 009°54'3 6.5
2017-Oct-24 06:30N 44°03' E 009°50'0 0.0
2017-Oct-24 05:56N 44°03' E 009°50'0 0.0
2017-Oct-24 05:30N 44°03' E 009°50'0 0.0
2017-Oct-24 05:00N 44°03' E 009°50'0 0.0
2017-Oct-24 04:30N 44°03' E 009°50'0 0.0
2017-Oct-24 04:00N 44°03' E 009°50'0 0.0
2017-Oct-24 03:30N 44°03' E 009°50'0 0.0
2017-Oct-23 07:29N 44°03' E 009°50'0 0.0
2017-Oct-23 07:00N 44°03' E 009°50'0 0.0
2017-Oct-23 06:30N 44°03' E 009°50'0 0.0
2017-Oct-23 06:00N 44°03' E 009°50'0 0.0
2017-Oct-23 05:30N 44°03' E 009°50'0 0.0
2017-Oct-23 05:00N 44°03' E 009°50'0 0.0
2017-Oct-23 04:30N 44°03' E 009°50'0 0.0
2017-Oct-23 04:00N 44°03' E 009°50'0 0.0
2017-Oct-22 06:55N 44°03' E 009°50'0 0.0
2017-Oct-22 06:30N 44°03' E 009°50'0 0.0
2017-Oct-22 06:00N 44°03' E 009°50'0 0.0
2017-Oct-22 05:30N 44°03' E 009°50'0 0.0
2017-Oct-22 05:00N 44°03' E 009°50'0 0.0
2017-Oct-22 04:30N 44°03' E 009°50'0 0.0
2017-Oct-21 16:27N 44°03' E 009°50'614.9
2017-Oct-21 16:00N 44°06' E 009°42'1 1.2
2017-Oct-21 14:57N 44°06' E 009°44'5 5.6
2017-Oct-21 14:00N 44°03' E 009°50'0 0.0
2017-Oct-21 13:31N 44°03' E 009°50'0 0.0
2017-Oct-21 13:00N 44°03' E 009°50'0 0.0
2017-Oct-21 12:30N 44°03' E 009°50'0 0.0
2017-Oct-21 12:00N 44°03' E 009°50'0 0.0
2017-Oct-21 11:30N 44°03' E 009°50'611.2
2017-Oct-21 11:00N 44°06' E 009°43'4 5.3
2017-Oct-21 10:18N 44°08' E 009°40'2 6.5
2017-Oct-21 10:00N 44°07' E 009°42'2 4.0
2017-Oct-21 09:29N 44°06' E 009°44'511.1
2017-Oct-21 09:00N 44°03' E 009°50'3 6.7
2017-Oct-21 08:30N 44°04' E 009°55'2 3.3
2017-Oct-21 08:00N 44°04' E 009°52'2 3.7
2017-Oct-21 07:30N 44°03' E 009°50'0 0.0
2017-Oct-21 07:00N 44°03' E 009°50'0 0.0
2017-Oct-21 06:30N 44°03' E 009°50'0 0.0
2017-Oct-21 06:00N 44°03' E 009°50'0 0.0
2017-Oct-21 05:30N 44°03' E 009°50'0 0.0
2017-Oct-21 05:00N 44°03' E 009°50'0 0.0
2017-Oct-21 04:30N 44°03' E 009°50'  

Dump ship's entire track history